sensor_id;sensor_type;location;lat;lon;timestamp;P1;durP1;ratioP1;P2;durP2;ratioP2
20014;SDS011;61787;42.022;23.078;2023-10-09T00:00:18;14.90;;;3.42;;
20014;SDS011;61787;42.022;23.078;2023-10-09T00:01:53;19.65;;;4.53;;
20014;SDS011;61787;42.022;23.078;2023-10-09T00:02:55;18.63;;;3.50;;
20014;SDS011;61787;42.022;23.078;2023-10-09T00:03:56;20.73;;;3.50;;
20014;SDS011;61787;42.022;23.078;2023-10-09T00:05:03;9.95;;;3.20;;
20014;SDS011;61787;42.022;23.078;2023-10-09T00:06:12;12.38;;;3.55;;
20014;SDS011;61787;42.022;23.078;2023-10-09T00:07:16;10.45;;;3.05;;
20014;SDS011;61787;42.022;23.078;2023-10-09T00:08:19;12.90;;;3.63;;
20014;SDS011;61787;42.022;23.078;2023-10-09T00:09:28;19.25;;;4.32;;
20014;SDS011;61787;42.022;23.078;2023-10-09T00:10:32;16.38;;;3.65;;
20014;SDS011;61787;42.022;23.078;2023-10-09T00:11:46;13.93;;;3.25;;
20014;SDS011;61787;42.022;23.078;2023-10-09T00:12:49;18.15;;;3.97;;
20014;SDS011;61787;42.022;23.078;2023-10-09T00:13:51;22.30;;;4.00;;
20014;SDS011;61787;42.022;23.078;2023-10-09T00:14:59;13.85;;;3.70;;
20014;SDS011;61787;42.022;23.078;2023-10-09T00:16:11;15.10;;;4.28;;
20014;SDS011;61787;42.022;23.078;2023-10-09T00:17:16;15.88;;;3.35;;
20014;SDS011;61787;42.022;23.078;2023-10-09T00:18:23;12.55;;;3.88;;
20014;SDS011;61787;42.022;23.078;2023-10-09T00:19:31;15.63;;;3.88;;
20014;SDS011;61787;42.022;23.078;2023-10-09T00:20:35;12.93;;;3.42;;
20014;SDS011;61787;42.022;23.078;2023-10-09T00:21:41;12.23;;;3.70;;
20014;SDS011;61787;42.022;23.078;2023-10-09T00:22:43;13.73;;;3.65;;
20014;SDS011;61787;42.022;23.078;2023-10-09T00:23:48;12.00;;;3.17;;
20014;SDS011;61787;42.022;23.078;2023-10-09T00:24:56;12.43;;;3.30;;
20014;SDS011;61787;42.022;23.078;2023-10-09T00:26:12;13.75;;;3.25;;
20014;SDS011;61787;42.022;23.078;2023-10-09T00:27:14;13.10;;;3.50;;
20014;SDS011;61787;42.022;23.078;2023-10-09T00:28:16;10.90;;;3.08;;
20014;SDS011;61787;42.022;23.078;2023-10-09T00:29:20;15.80;;;3.40;;
20014;SDS011;61787;42.022;23.078;2023-10-09T00:30:24;10.32;;;3.15;;
20014;SDS011;61787;42.022;23.078;2023-10-09T00:31:31;14.57;;;3.83;;
20014;SDS011;61787;42.022;23.078;2023-10-09T00:32:35;17.55;;;3.58;;
20014;SDS011;61787;42.022;23.078;2023-10-09T00:33:46;10.93;;;3.25;;
20014;SDS011;61787;42.022;23.078;2023-10-09T00:34:49;10.75;;;3.55;;
20014;SDS011;61787;42.022;23.078;2023-10-09T00:35:53;14.05;;;3.40;;
20014;SDS011;61787;42.022;23.078;2023-10-09T00:36:56;15.98;;;3.53;;
20014;SDS011;61787;42.022;23.078;2023-10-09T00:38:05;12.02;;;2.80;;
20014;SDS011;61787;42.022;23.078;2023-10-09T00:39:20;6.80;;;2.88;;
20014;SDS011;61787;42.022;23.078;2023-10-09T00:40:42;11.45;;;3.10;;
20014;SDS011;61787;42.022;23.078;2023-10-09T00:41:48;13.30;;;3.03;;
20014;SDS011;61787;42.022;23.078;2023-10-09T00:42:50;12.55;;;3.05;;
20014;SDS011;61787;42.022;23.078;2023-10-09T00:43:54;13.73;;;2.83;;
20014;SDS011;61787;42.022;23.078;2023-10-09T00:45:00;10.40;;;2.80;;
20014;SDS011;61787;42.022;23.078;2023-10-09T00:46:07;15.35;;;2.88;;
20014;SDS011;61787;42.022;23.078;2023-10-09T00:47:22;8.10;;;2.63;;
20014;SDS011;61787;42.022;23.078;2023-10-09T00:48:28;11.00;;;2.83;;
20014;SDS011;61787;42.022;23.078;2023-10-09T00:49:39;12.18;;;3.38;;
20014;SDS011;61787;42.022;23.078;2023-10-09T00:50:45;10.40;;;2.72;;
20014;SDS011;61787;42.022;23.078;2023-10-09T00:51:53;12.85;;;2.90;;
20014;SDS011;61787;42.022;23.078;2023-10-09T00:52:58;6.18;;;2.38;;
20014;SDS011;61787;42.022;23.078;2023-10-09T00:54:12;12.60;;;3.03;;
20014;SDS011;61787;42.022;23.078;2023-10-09T00:55:17;11.63;;;2.78;;
20014;SDS011;61787;42.022;23.078;2023-10-09T00:56:28;8.80;;;3.08;;
20014;SDS011;61787;42.022;23.078;2023-10-09T00:57:43;11.68;;;2.83;;
20014;SDS011;61787;42.022;23.078;2023-10-09T00:58:58;8.70;;;3.00;;
20014;SDS011;61787;42.022;23.078;2023-10-09T01:00:10;12.35;;;3.10;;
20014;SDS011;61787;42.022;23.078;2023-10-09T01:01:26;12.80;;;2.67;;
20014;SDS011;61787;42.022;23.078;2023-10-09T01:02:49;8.23;;;3.03;;
20014;SDS011;61787;42.022;23.078;2023-10-09T01:04:11;5.88;;;2.38;;
20014;SDS011;61787;42.022;23.078;2023-10-09T01:05:16;4.70;;;2.25;;
20014;SDS011;61787;42.022;23.078;2023-10-09T01:06:21;11.25;;;2.65;;
20014;SDS011;61787;42.022;23.078;2023-10-09T01:07:29;10.52;;;2.72;;
20014;SDS011;61787;42.022;23.078;2023-10-09T01:08:33;8.43;;;2.85;;
20014;SDS011;61787;42.022;23.078;2023-10-09T01:09:43;6.32;;;2.60;;
20014;SDS011;61787;42.022;23.078;2023-10-09T01:10:46;11.63;;;3.42;;
20014;SDS011;61787;42.022;23.078;2023-10-09T01:12:06;11.02;;;2.65;;
20014;SDS011;61787;42.022;23.078;2023-10-09T01:13:09;13.25;;;2.95;;
20014;SDS011;61787;42.022;23.078;2023-10-09T01:14:11;9.48;;;2.33;;
20014;SDS011;61787;42.022;23.078;2023-10-09T01:15:13;10.00;;;2.65;;
20014;SDS011;61787;42.022;23.078;2023-10-09T01:16:35;8.98;;;2.70;;
20014;SDS011;61787;42.022;23.078;2023-10-09T01:17:37;12.57;;;2.95;;
20014;SDS011;61787;42.022;23.078;2023-10-09T01:18:40;10.65;;;2.55;;
20014;SDS011;61787;42.022;23.078;2023-10-09T01:19:42;9.73;;;2.78;;
20014;SDS011;61787;42.022;23.078;2023-10-09T01:20:45;11.75;;;2.65;;
20014;SDS011;61787;42.022;23.078;2023-10-09T01:21:46;10.20;;;2.42;;
20014;SDS011;61787;42.022;23.078;2023-10-09T01:22:49;16.67;;;2.97;;
20014;SDS011;61787;42.022;23.078;2023-10-09T01:23:55;12.35;;;2.92;;
20014;SDS011;61787;42.022;23.078;2023-10-09T01:25:09;7.15;;;2.42;;
20014;SDS011;61787;42.022;23.078;2023-10-09T01:26:11;14.75;;;2.63;;
20014;SDS011;61787;42.022;23.078;2023-10-09T01:27:13;6.63;;;2.72;;
20014;SDS011;61787;42.022;23.078;2023-10-09T01:28:18;8.70;;;3.03;;
20014;SDS011;61787;42.022;23.078;2023-10-09T01:29:21;13.25;;;2.78;;
20014;SDS011;61787;42.022;23.078;2023-10-09T01:30:23;7.10;;;2.50;;
20014;SDS011;61787;42.022;23.078;2023-10-09T01:31:25;14.85;;;3.08;;
20014;SDS011;61787;42.022;23.078;2023-10-09T01:32:35;14.93;;;3.17;;
20014;SDS011;61787;42.022;23.078;2023-10-09T01:33:37;7.45;;;2.33;;
20014;SDS011;61787;42.022;23.078;2023-10-09T01:34:38;8.85;;;2.75;;
20014;SDS011;61787;42.022;23.078;2023-10-09T01:35:43;10.32;;;2.78;;
20014;SDS011;61787;42.022;23.078;2023-10-09T01:36:49;7.88;;;2.45;;
20014;SDS011;61787;42.022;23.078;2023-10-09T01:37:51;10.93;;;2.63;;
20014;SDS011;61787;42.022;23.078;2023-10-09T01:38:52;9.60;;;2.80;;
20014;SDS011;61787;42.022;23.078;2023-10-09T01:39:55;8.35;;;2.85;;
20014;SDS011;61787;42.022;23.078;2023-10-09T01:41:21;10.23;;;2.33;;
20014;SDS011;61787;42.022;23.078;2023-10-09T01:42:22;7.53;;;2.63;;
20014;SDS011;61787;42.022;23.078;2023-10-09T01:43:47;7.57;;;2.70;;
20014;SDS011;61787;42.022;23.078;2023-10-09T01:44:52;11.00;;;2.85;;
20014;SDS011;61787;42.022;23.078;2023-10-09T01:45:53;12.43;;;3.05;;
20014;SDS011;61787;42.022;23.078;2023-10-09T01:46:55;7.85;;;2.70;;
20014;SDS011;61787;42.022;23.078;2023-10-09T01:47:59;7.15;;;2.65;;
20014;SDS011;61787;42.022;23.078;2023-10-09T01:49:01;12.20;;;2.80;;
20014;SDS011;61787;42.022;23.078;2023-10-09T01:50:09;11.30;;;2.67;;
20014;SDS011;61787;42.022;23.078;2023-10-09T01:51:21;12.27;;;2.60;;
20014;SDS011;61787;42.022;23.078;2023-10-09T01:52:23;10.10;;;3.03;;
20014;SDS011;61787;42.022;23.078;2023-10-09T01:53:25;7.32;;;2.55;;
20014;SDS011;61787;42.022;23.078;2023-10-09T01:54:31;11.43;;;2.90;;
20014;SDS011;61787;42.022;23.078;2023-10-09T01:55:38;10.98;;;2.60;;
20014;SDS011;61787;42.022;23.078;2023-10-09T01:56:43;11.32;;;2.33;;
20014;SDS011;61787;42.022;23.078;2023-10-09T01:57:48;8.63;;;2.65;;
20014;SDS011;61787;42.022;23.078;2023-10-09T01:58:49;10.60;;;2.75;;
20014;SDS011;61787;42.022;23.078;2023-10-09T01:59:51;9.30;;;2.85;;
20014;SDS011;61787;42.022;23.078;2023-10-09T02:00:56;7.50;;;2.40;;
20014;SDS011;61787;42.022;23.078;2023-10-09T02:02:06;9.93;;;2.90;;
20014;SDS011;61787;42.022;23.078;2023-10-09T02:03:27;8.95;;;2.60;;
20014;SDS011;61787;42.022;23.078;2023-10-09T02:04:31;10.85;;;2.95;;
20014;SDS011;61787;42.022;23.078;2023-10-09T02:05:32;12.43;;;3.05;;
20014;SDS011;61787;42.022;23.078;2023-10-09T02:06:37;10.10;;;2.80;;
20014;SDS011;61787;42.022;23.078;2023-10-09T02:07:39;10.65;;;3.08;;
20014;SDS011;61787;42.022;23.078;2023-10-09T02:08:42;12.32;;;3.00;;
20014;SDS011;61787;42.022;23.078;2023-10-09T02:09:51;11.35;;;3.22;;
20014;SDS011;61787;42.022;23.078;2023-10-09T02:10:53;8.38;;;2.78;;
20014;SDS011;61787;42.022;23.078;2023-10-09T02:11:57;7.50;;;2.65;;
20014;SDS011;61787;42.022;23.078;2023-10-09T02:12:59;6.40;;;2.47;;
20014;SDS011;61787;42.022;23.078;2023-10-09T02:14:08;8.20;;;2.47;;
20014;SDS011;61787;42.022;23.078;2023-10-09T02:15:22;12.18;;;2.63;;
20014;SDS011;61787;42.022;23.078;2023-10-09T02:16:43;11.00;;;2.70;;
20014;SDS011;61787;42.022;23.078;2023-10-09T02:17:44;16.35;;;3.10;;
20014;SDS011;61787;42.022;23.078;2023-10-09T02:19:02;7.22;;;2.50;;
20014;SDS011;61787;42.022;23.078;2023-10-09T02:20:09;10.40;;;2.70;;
20014;SDS011;61787;42.022;23.078;2023-10-09T02:21:19;10.45;;;2.40;;
20014;SDS011;61787;42.022;23.078;2023-10-09T02:22:50;7.82;;;2.22;;
20014;SDS011;61787;42.022;23.078;2023-10-09T02:23:54;11.13;;;2.28;;
20014;SDS011;61787;42.022;23.078;2023-10-09T02:24:58;8.27;;;2.13;;
20014;SDS011;61787;42.022;23.078;2023-10-09T02:26:00;5.45;;;2.10;;
20014;SDS011;61787;42.022;23.078;2023-10-09T02:27:04;12.15;;;3.00;;
20014;SDS011;61787;42.022;23.078;2023-10-09T02:28:11;11.75;;;2.17;;
20014;SDS011;61787;42.022;23.078;2023-10-09T02:29:18;7.50;;;2.63;;
20014;SDS011;61787;42.022;23.078;2023-10-09T02:30:25;8.68;;;2.38;;
20014;SDS011;61787;42.022;23.078;2023-10-09T02:31:30;5.97;;;2.35;;
20014;SDS011;61787;42.022;23.078;2023-10-09T02:32:42;6.07;;;2.25;;
20014;SDS011;61787;42.022;23.078;2023-10-09T02:33:44;6.10;;;2.10;;
20014;SDS011;61787;42.022;23.078;2023-10-09T02:34:46;7.55;;;2.50;;
20014;SDS011;61787;42.022;23.078;2023-10-09T02:35:48;7.30;;;2.17;;
20014;SDS011;61787;42.022;23.078;2023-10-09T02:36:52;3.20;;;1.93;;
20014;SDS011;61787;42.022;23.078;2023-10-09T02:38:07;5.63;;;2.13;;
20014;SDS011;61787;42.022;23.078;2023-10-09T02:39:10;9.18;;;2.30;;
20014;SDS011;61787;42.022;23.078;2023-10-09T02:40:28;11.13;;;2.10;;
20014;SDS011;61787;42.022;23.078;2023-10-09T02:41:34;6.73;;;2.50;;
20014;SDS011;61787;42.022;23.078;2023-10-09T02:42:36;9.93;;;1.80;;
20014;SDS011;61787;42.022;23.078;2023-10-09T02:43:43;9.50;;;2.33;;
20014;SDS011;61787;42.022;23.078;2023-10-09T02:44:49;9.23;;;2.00;;
20014;SDS011;61787;42.022;23.078;2023-10-09T02:45:52;6.70;;;2.40;;
20014;SDS011;61787;42.022;23.078;2023-10-09T02:46:54;11.32;;;2.17;;
20014;SDS011;61787;42.022;23.078;2023-10-09T02:47:59;6.97;;;2.43;;
20014;SDS011;61787;42.022;23.078;2023-10-09T02:49:01;9.50;;;2.00;;
20014;SDS011;61787;42.022;23.078;2023-10-09T02:50:11;10.77;;;2.40;;
20014;SDS011;61787;42.022;23.078;2023-10-09T02:51:13;8.40;;;2.67;;
20014;SDS011;61787;42.022;23.078;2023-10-09T02:52:33;8.43;;;2.50;;
20014;SDS011;61787;42.022;23.078;2023-10-09T02:53:41;5.32;;;1.98;;
20014;SDS011;61787;42.022;23.078;2023-10-09T02:54:43;7.57;;;2.33;;
20014;SDS011;61787;42.022;23.078;2023-10-09T02:55:48;5.97;;;2.20;;
20014;SDS011;61787;42.022;23.078;2023-10-09T02:57:09;5.55;;;1.88;;
20014;SDS011;61787;42.022;23.078;2023-10-09T02:58:17;4.70;;;1.92;;
20014;SDS011;61787;42.022;23.078;2023-10-09T02:59:22;5.30;;;1.77;;
20014;SDS011;61787;42.022;23.078;2023-10-09T03:00:25;6.82;;;2.33;;
20014;SDS011;61787;42.022;23.078;2023-10-09T03:01:34;7.28;;;2.50;;
20014;SDS011;61787;42.022;23.078;2023-10-09T03:02:36;10.13;;;2.38;;
20014;SDS011;61787;42.022;23.078;2023-10-09T03:03:41;4.28;;;1.67;;
20014;SDS011;61787;42.022;23.078;2023-10-09T03:04:47;6.00;;;2.17;;
20014;SDS011;61787;42.022;23.078;2023-10-09T03:05:48;9.63;;;2.25;;
20014;SDS011;61787;42.022;23.078;2023-10-09T03:06:51;5.00;;;2.10;;
20014;SDS011;61787;42.022;23.078;2023-10-09T03:07:53;6.13;;;1.77;;
20014;SDS011;61787;42.022;23.078;2023-10-09T03:08:55;6.55;;;2.35;;
20014;SDS011;61787;42.022;23.078;2023-10-09T03:09:57;6.80;;;1.80;;
20014;SDS011;61787;42.022;23.078;2023-10-09T03:10:58;4.68;;;1.83;;
20014;SDS011;61787;42.022;23.078;2023-10-09T03:12:02;8.20;;;2.50;;
20014;SDS011;61787;42.022;23.078;2023-10-09T03:13:05;8.75;;;2.47;;
20014;SDS011;61787;42.022;23.078;2023-10-09T03:14:06;8.68;;;2.30;;
20014;SDS011;61787;42.022;23.078;2023-10-09T03:15:08;7.63;;;2.20;;
20014;SDS011;61787;42.022;23.078;2023-10-09T03:16:11;5.30;;;2.30;;
20014;SDS011;61787;42.022;23.078;2023-10-09T03:17:22;5.35;;;1.80;;
20014;SDS011;61787;42.022;23.078;2023-10-09T03:18:24;11.07;;;2.43;;
20014;SDS011;61787;42.022;23.078;2023-10-09T03:19:26;6.10;;;2.28;;
20014;SDS011;61787;42.022;23.078;2023-10-09T03:20:30;6.07;;;2.20;;
20014;SDS011;61787;42.022;23.078;2023-10-09T03:21:32;4.90;;;2.27;;
20014;SDS011;61787;42.022;23.078;2023-10-09T03:22:34;8.27;;;2.33;;
20014;SDS011;61787;42.022;23.078;2023-10-09T03:23:35;7.43;;;2.03;;
20014;SDS011;61787;42.022;23.078;2023-10-09T03:24:38;5.95;;;1.85;;
20014;SDS011;61787;42.022;23.078;2023-10-09T03:25:40;8.10;;;2.10;;
20014;SDS011;61787;42.022;23.078;2023-10-09T03:26:46;5.17;;;2.00;;
20014;SDS011;61787;42.022;23.078;2023-10-09T03:27:48;3.00;;;1.77;;
20014;SDS011;61787;42.022;23.078;2023-10-09T03:28:50;5.93;;;1.80;;
20014;SDS011;61787;42.022;23.078;2023-10-09T03:29:53;5.63;;;1.77;;
20014;SDS011;61787;42.022;23.078;2023-10-09T03:30:55;8.77;;;2.00;;
20014;SDS011;61787;42.022;23.078;2023-10-09T03:32:00;7.13;;;1.73;;
20014;SDS011;61787;42.022;23.078;2023-10-09T03:33:02;6.60;;;2.00;;
20014;SDS011;61787;42.022;23.078;2023-10-09T03:34:05;4.93;;;1.77;;
20014;SDS011;61787;42.022;23.078;2023-10-09T03:35:09;8.33;;;2.17;;
20014;SDS011;61787;42.022;23.078;2023-10-09T03:36:16;5.17;;;2.07;;
20014;SDS011;61787;42.022;23.078;2023-10-09T03:37:18;10.43;;;1.85;;
20014;SDS011;61787;42.022;23.078;2023-10-09T03:38:38;3.50;;;1.70;;
20014;SDS011;61787;42.022;23.078;2023-10-09T03:39:40;6.67;;;1.93;;
20014;SDS011;61787;42.022;23.078;2023-10-09T03:40:42;5.20;;;2.03;;
20014;SDS011;61787;42.022;23.078;2023-10-09T03:41:45;7.07;;;1.80;;
20014;SDS011;61787;42.022;23.078;2023-10-09T03:42:48;6.72;;;2.05;;
20014;SDS011;61787;42.022;23.078;2023-10-09T03:43:50;6.10;;;2.23;;
20014;SDS011;61787;42.022;23.078;2023-10-09T03:44:52;4.10;;;2.30;;
20014;SDS011;61787;42.022;23.078;2023-10-09T03:45:55;7.73;;;1.90;;
20014;SDS011;61787;42.022;23.078;2023-10-09T03:46:58;4.47;;;1.83;;
20014;SDS011;61787;42.022;23.078;2023-10-09T03:48:00;7.40;;;2.20;;
20014;SDS011;61787;42.022;23.078;2023-10-09T03:49:27;5.70;;;2.60;;
20014;SDS011;61787;42.022;23.078;2023-10-09T03:50:30;5.50;;;2.10;;
20014;SDS011;61787;42.022;23.078;2023-10-09T03:51:37;8.60;;;2.53;;
20014;SDS011;61787;42.022;23.078;2023-10-09T03:52:41;8.43;;;3.00;;
20014;SDS011;61787;42.022;23.078;2023-10-09T03:53:42;9.10;;;2.37;;
20014;SDS011;61787;42.022;23.078;2023-10-09T03:54:44;7.10;;;2.40;;
20014;SDS011;61787;42.022;23.078;2023-10-09T03:55:48;7.87;;;2.80;;
20014;SDS011;61787;42.022;23.078;2023-10-09T03:56:50;8.67;;;2.40;;
20014;SDS011;61787;42.022;23.078;2023-10-09T03:57:52;10.30;;;2.67;;
20014;SDS011;61787;42.022;23.078;2023-10-09T03:58:57;5.97;;;2.57;;
20014;SDS011;61787;42.022;23.078;2023-10-09T03:59:59;9.83;;;2.40;;
20014;SDS011;61787;42.022;23.078;2023-10-09T04:01:08;6.40;;;2.47;;
20014;SDS011;61787;42.022;23.078;2023-10-09T04:02:15;4.53;;;2.37;;
20014;SDS011;61787;42.022;23.078;2023-10-09T04:03:17;7.40;;;2.57;;
20014;SDS011;61787;42.022;23.078;2023-10-09T04:04:22;8.57;;;2.80;;
20014;SDS011;61787;42.022;23.078;2023-10-09T04:05:25;8.13;;;2.57;;
20014;SDS011;61787;42.022;23.078;2023-10-09T04:06:30;5.33;;;2.67;;
20014;SDS011;61787;42.022;23.078;2023-10-09T04:07:34;7.17;;;2.40;;
20014;SDS011;61787;42.022;23.078;2023-10-09T04:08:36;12.77;;;2.47;;
20014;SDS011;61787;42.022;23.078;2023-10-09T04:09:41;5.80;;;2.47;;
20014;SDS011;61787;42.022;23.078;2023-10-09T04:10:46;8.20;;;2.57;;
20014;SDS011;61787;42.022;23.078;2023-10-09T04:11:58;8.00;;;2.50;;
20014;SDS011;61787;42.022;23.078;2023-10-09T04:13:12;5.97;;;2.50;;
20014;SDS011;61787;42.022;23.078;2023-10-09T04:14:18;6.97;;;2.53;;
20014;SDS011;61787;42.022;23.078;2023-10-09T04:15:27;6.17;;;2.30;;
20014;SDS011;61787;42.022;23.078;2023-10-09T04:16:32;7.13;;;2.03;;
20014;SDS011;61787;42.022;23.078;2023-10-09T04:17:33;6.30;;;2.30;;
20014;SDS011;61787;42.022;23.078;2023-10-09T04:18:36;7.87;;;2.60;;
20014;SDS011;61787;42.022;23.078;2023-10-09T04:19:40;7.27;;;2.40;;
20014;SDS011;61787;42.022;23.078;2023-10-09T04:20:49;5.20;;;2.20;;
20014;SDS011;61787;42.022;23.078;2023-10-09T04:22:10;4.47;;;1.90;;
20014;SDS011;61787;42.022;23.078;2023-10-09T04:23:27;5.50;;;2.73;;
20014;SDS011;61787;42.022;23.078;2023-10-09T04:24:57;6.70;;;2.30;;
20014;SDS011;61787;42.022;23.078;2023-10-09T04:26:01;7.27;;;2.40;;
20014;SDS011;61787;42.022;23.078;2023-10-09T04:27:11;7.30;;;2.30;;
20014;SDS011;61787;42.022;23.078;2023-10-09T04:28:14;9.47;;;2.33;;
20014;SDS011;61787;42.022;23.078;2023-10-09T04:29:16;4.20;;;2.53;;
20014;SDS011;61787;42.022;23.078;2023-10-09T04:30:39;5.20;;;2.37;;
20014;SDS011;61787;42.022;23.078;2023-10-09T04:31:49;9.93;;;2.43;;
20014;SDS011;61787;42.022;23.078;2023-10-09T04:32:54;6.93;;;2.57;;
20014;SDS011;61787;42.022;23.078;2023-10-09T04:34:02;5.17;;;2.30;;
20014;SDS011;61787;42.022;23.078;2023-10-09T04:35:29;6.47;;;2.70;;
20014;SDS011;61787;42.022;23.078;2023-10-09T04:36:31;7.87;;;2.40;;
20014;SDS011;61787;42.022;23.078;2023-10-09T04:37:47;3.97;;;2.30;;
20014;SDS011;61787;42.022;23.078;2023-10-09T04:38:53;6.27;;;2.53;;
20014;SDS011;61787;42.022;23.078;2023-10-09T04:40:18;4.87;;;2.30;;
20014;SDS011;61787;42.022;23.078;2023-10-09T04:41:38;9.77;;;3.00;;
20014;SDS011;61787;42.022;23.078;2023-10-09T04:42:42;10.27;;;2.73;;
20014;SDS011;61787;42.022;23.078;2023-10-09T04:44:00;6.30;;;2.70;;
20014;SDS011;61787;42.022;23.078;2023-10-09T04:45:21;4.03;;;2.50;;
20014;SDS011;61787;42.022;23.078;2023-10-09T04:46:43;7.37;;;2.80;;
20014;SDS011;61787;42.022;23.078;2023-10-09T04:47:45;6.90;;;2.70;;
20014;SDS011;61787;42.022;23.078;2023-10-09T04:49:00;6.93;;;2.77;;
20014;SDS011;61787;42.022;23.078;2023-10-09T04:50:18;9.80;;;3.00;;
20014;SDS011;61787;42.022;23.078;2023-10-09T04:51:20;7.70;;;3.20;;
20014;SDS011;61787;42.022;23.078;2023-10-09T04:52:35;7.33;;;2.90;;
20014;SDS011;61787;42.022;23.078;2023-10-09T04:53:37;7.63;;;3.70;;
20014;SDS011;61787;42.022;23.078;2023-10-09T04:54:49;9.87;;;3.87;;
20014;SDS011;61787;42.022;23.078;2023-10-09T04:56:09;6.90;;;3.30;;
20014;SDS011;61787;42.022;23.078;2023-10-09T04:57:17;6.67;;;3.33;;
20014;SDS011;61787;42.022;23.078;2023-10-09T04:58:22;4.53;;;2.80;;
20014;SDS011;61787;42.022;23.078;2023-10-09T04:59:26;8.87;;;2.53;;
20014;SDS011;61787;42.022;23.078;2023-10-09T05:00:28;7.70;;;2.87;;
20014;SDS011;61787;42.022;23.078;2023-10-09T05:01:30;4.90;;;2.73;;
20014;SDS011;61787;42.022;23.078;2023-10-09T05:02:45;4.40;;;2.57;;
20014;SDS011;61787;42.022;23.078;2023-10-09T05:03:56;7.10;;;3.00;;
20014;SDS011;61787;42.022;23.078;2023-10-09T05:05:05;6.40;;;2.80;;
20014;SDS011;61787;42.022;23.078;2023-10-09T05:06:39;6.03;;;2.77;;
20014;SDS011;61787;42.022;23.078;2023-10-09T05:07:58;4.77;;;2.60;;
20014;SDS011;61787;42.022;23.078;2023-10-09T05:09:18;6.30;;;2.97;;
20014;SDS011;61787;42.022;23.078;2023-10-09T05:10:22;4.73;;;3.17;;
20014;SDS011;61787;42.022;23.078;2023-10-09T05:11:26;6.53;;;3.27;;
20014;SDS011;61787;42.022;23.078;2023-10-09T05:12:47;5.07;;;3.17;;
20014;SDS011;61787;42.022;23.078;2023-10-09T05:13:49;7.90;;;3.67;;
20014;SDS011;61787;42.022;23.078;2023-10-09T05:14:59;5.17;;;3.17;;
20014;SDS011;61787;42.022;23.078;2023-10-09T05:16:14;9.97;;;3.40;;
20014;SDS011;61787;42.022;23.078;2023-10-09T05:17:20;6.43;;;2.83;;
20014;SDS011;61787;42.022;23.078;2023-10-09T05:18:27;3.50;;;2.93;;
20014;SDS011;61787;42.022;23.078;2023-10-09T05:19:28;5.17;;;3.00;;
20014;SDS011;61787;42.022;23.078;2023-10-09T05:20:31;5.60;;;2.60;;
20014;SDS011;61787;42.022;23.078;2023-10-09T05:21:58;8.50;;;2.37;;
20014;SDS011;61787;42.022;23.078;2023-10-09T05:23:09;4.37;;;2.17;;
20014;SDS011;61787;42.022;23.078;2023-10-09T05:24:24;7.60;;;2.30;;
20014;SDS011;61787;42.022;23.078;2023-10-09T05:25:30;2.53;;;2.30;;
20014;SDS011;61787;42.022;23.078;2023-10-09T05:26:50;5.73;;;2.40;;
20014;SDS011;61787;42.022;23.078;2023-10-09T05:27:52;2.50;;;2.17;;
20014;SDS011;61787;42.022;23.078;2023-10-09T05:28:57;4.57;;;2.40;;
20014;SDS011;61787;42.022;23.078;2023-10-09T05:29:59;5.97;;;2.37;;
20014;SDS011;61787;42.022;23.078;2023-10-09T05:31:14;4.20;;;2.50;;
20014;SDS011;61787;42.022;23.078;2023-10-09T05:32:35;4.17;;;2.53;;
20014;SDS011;61787;42.022;23.078;2023-10-09T05:33:36;4.67;;;2.40;;
20014;SDS011;61787;42.022;23.078;2023-10-09T05:34:40;4.23;;;2.57;;
20014;SDS011;61787;42.022;23.078;2023-10-09T05:36:01;6.87;;;2.40;;
20014;SDS011;61787;42.022;23.078;2023-10-09T05:37:16;4.83;;;2.30;;
20014;SDS011;61787;42.022;23.078;2023-10-09T05:38:26;5.67;;;2.50;;
20014;SDS011;61787;42.022;23.078;2023-10-09T05:39:31;3.93;;;2.47;;
20014;SDS011;61787;42.022;23.078;2023-10-09T05:40:42;4.37;;;2.20;;
20014;SDS011;61787;42.022;23.078;2023-10-09T05:41:47;3.83;;;2.10;;
20014;SDS011;61787;42.022;23.078;2023-10-09T05:42:49;3.90;;;2.50;;
20014;SDS011;61787;42.022;23.078;2023-10-09T05:44:01;6.23;;;2.47;;
20014;SDS011;61787;42.022;23.078;2023-10-09T05:45:21;6.20;;;2.27;;
20014;SDS011;61787;42.022;23.078;2023-10-09T05:46:42;5.63;;;2.27;;
20014;SDS011;61787;42.022;23.078;2023-10-09T05:48:09;6.47;;;2.60;;
20014;SDS011;61787;42.022;23.078;2023-10-09T05:49:14;4.90;;;2.23;;
20014;SDS011;61787;42.022;23.078;2023-10-09T05:50:26;8.30;;;2.33;;
20014;SDS011;61787;42.022;23.078;2023-10-09T05:51:29;6.67;;;2.10;;
20014;SDS011;61787;42.022;23.078;2023-10-09T05:52:55;5.00;;;1.97;;
20014;SDS011;61787;42.022;23.078;2023-10-09T05:53:58;3.47;;;1.70;;
20014;SDS011;61787;42.022;23.078;2023-10-09T05:55:19;6.37;;;1.73;;
20014;SDS011;61787;42.022;23.078;2023-10-09T05:56:20;4.40;;;1.90;;
20014;SDS011;61787;42.022;23.078;2023-10-09T05:57:41;3.10;;;1.80;;
20014;SDS011;61787;42.022;23.078;2023-10-09T05:58:58;3.93;;;1.77;;
20014;SDS011;61787;42.022;23.078;2023-10-09T06:00:18;5.23;;;2.00;;
20014;SDS011;61787;42.022;23.078;2023-10-09T06:01:38;2.40;;;1.60;;
20014;SDS011;61787;42.022;23.078;2023-10-09T06:02:52;2.47;;;1.50;;
20014;SDS011;61787;42.022;23.078;2023-10-09T06:04:12;7.87;;;1.60;;
20014;SDS011;61787;42.022;23.078;2023-10-09T06:05:17;2.67;;;1.23;;
20014;SDS011;61787;42.022;23.078;2023-10-09T06:06:42;2.30;;;1.30;;
20014;SDS011;61787;42.022;23.078;2023-10-09T06:07:46;9.30;;;1.80;;
20014;SDS011;61787;42.022;23.078;2023-10-09T06:09:06;4.60;;;1.53;;
20014;SDS011;61787;42.022;23.078;2023-10-09T06:10:17;1.23;;;1.13;;
20014;SDS011;61787;42.022;23.078;2023-10-09T06:11:38;8.40;;;2.00;;
20014;SDS011;61787;42.022;23.078;2023-10-09T06:12:40;2.30;;;1.20;;
20014;SDS011;61787;42.022;23.078;2023-10-09T06:13:44;2.57;;;1.30;;
20014;SDS011;61787;42.022;23.078;2023-10-09T06:14:48;8.43;;;1.30;;
20014;SDS011;61787;42.022;23.078;2023-10-09T06:15:59;4.33;;;1.47;;
20014;SDS011;61787;42.022;23.078;2023-10-09T06:17:21;5.63;;;1.23;;
20014;SDS011;61787;42.022;23.078;2023-10-09T06:18:28;4.00;;;1.40;;
20014;SDS011;61787;42.022;23.078;2023-10-09T06:19:37;3.40;;;1.10;;
20014;SDS011;61787;42.022;23.078;2023-10-09T06:20:47;3.00;;;1.10;;
20014;SDS011;61787;42.022;23.078;2023-10-09T06:22:10;3.70;;;1.30;;
20014;SDS011;61787;42.022;23.078;2023-10-09T06:23:24;3.73;;;1.20;;
20014;SDS011;61787;42.022;23.078;2023-10-09T06:24:46;4.03;;;1.40;;
20014;SDS011;61787;42.022;23.078;2023-10-09T06:25:53;4.03;;;1.10;;
20014;SDS011;61787;42.022;23.078;2023-10-09T06:27:06;6.60;;;1.27;;
20014;SDS011;61787;42.022;23.078;2023-10-09T06:28:12;3.13;;;1.00;;
20014;SDS011;61787;42.022;23.078;2023-10-09T06:29:14;6.23;;;1.00;;
20014;SDS011;61787;42.022;23.078;2023-10-09T06:30:17;8.30;;;1.27;;
20014;SDS011;61787;42.022;23.078;2023-10-09T06:31:19;1.90;;;1.10;;
20014;SDS011;61787;42.022;23.078;2023-10-09T06:32:30;7.43;;;1.67;;
20014;SDS011;61787;42.022;23.078;2023-10-09T06:33:32;3.30;;;1.17;;
20014;SDS011;61787;42.022;23.078;2023-10-09T06:34:56;3.07;;;1.20;;
20014;SDS011;61787;42.022;23.078;2023-10-09T06:36:17;2.27;;;0.97;;
20014;SDS011;61787;42.022;23.078;2023-10-09T06:37:19;4.13;;;1.30;;
20014;SDS011;61787;42.022;23.078;2023-10-09T06:38:27;4.43;;;1.20;;
20014;SDS011;61787;42.022;23.078;2023-10-09T06:39:41;2.10;;;1.17;;
20014;SDS011;61787;42.022;23.078;2023-10-09T06:40:52;5.43;;;1.33;;
20014;SDS011;61787;42.022;23.078;2023-10-09T06:41:53;2.03;;;1.13;;